createdAt,value
2018-01-23T00:01:23.725Z,989.46
2018-01-23T00:02:22.838Z,989.43
2018-01-23T00:04:16.262Z,989.48
2018-01-23T00:05:15.390Z,989.53
2018-01-23T00:07:08.629Z,989.61
2018-01-23T00:08:09.012Z,989.63
2018-01-23T00:10:01.756Z,989.70
2018-01-23T00:11:01.354Z,989.65
2018-01-23T00:12:54.342Z,989.67
2018-01-23T00:13:54.180Z,989.66
2018-01-23T00:15:46.757Z,989.73
2018-01-23T00:16:47.147Z,989.70
2018-01-23T00:18:40.014Z,989.70
2018-01-23T00:19:39.916Z,989.74
2018-01-23T00:21:32.463Z,989.84
2018-01-23T00:22:32.761Z,989.86
2018-01-23T00:24:25.548Z,989.89
2018-01-23T00:25:25.539Z,989.86
2018-01-23T00:27:19.470Z,989.86
2018-01-23T00:28:18.355Z,989.85
2018-01-23T00:30:12.190Z,989.93
2018-01-23T00:31:12.161Z,989.98
2018-01-23T00:33:06.871Z,990.10
2018-01-23T00:34:06.252Z,990.07
2018-01-23T00:35:59.515Z,990.09
2018-01-23T00:36:59.767Z,990.12
2018-01-23T00:38:53.148Z,990.18
2018-01-23T00:39:52.552Z,990.19
2018-01-23T00:41:46.361Z,990.21
2018-01-23T00:42:45.739Z,990.25
2018-01-23T00:44:39.654Z,990.30
2018-01-23T00:45:38.780Z,990.33
2018-01-23T00:47:32.622Z,990.36
2018-01-23T00:48:31.655Z,990.36
2018-01-23T00:50:25.903Z,990.39
2018-01-23T00:51:25.676Z,990.42
2018-01-23T00:53:18.938Z,990.44
2018-01-23T00:54:18.846Z,990.44
2018-01-23T00:56:12.999Z,990.52
2018-01-23T00:57:13.258Z,990.52
2018-01-23T00:59:07.458Z,990.59
2018-01-23T01:00:06.192Z,990.60
2018-01-23T01:02:00.087Z,990.66
2018-01-23T01:02:59.342Z,990.65
2018-01-23T01:04:53.350Z,990.65
2018-01-23T01:05:53.223Z,990.61
2018-01-23T01:07:47.313Z,990.63
2018-01-23T01:08:47.625Z,990.60
2018-01-23T01:10:40.544Z,990.65
2018-01-23T01:11:40.074Z,990.61
2018-01-23T01:13:33.396Z,990.64
2018-01-23T01:14:33.306Z,990.65
2018-01-23T01:16:26.900Z,990.63
2018-01-23T01:17:26.128Z,990.65
2018-01-23T01:19:18.714Z,990.69
2018-01-23T01:20:18.658Z,990.72
2018-01-23T01:22:12.052Z,990.74
2018-01-23T01:23:11.749Z,990.73
2018-01-23T01:25:04.730Z,990.72
2018-01-23T01:26:05.099Z,990.80
2018-01-23T01:27:58.914Z,990.81
2018-01-23T01:28:58.820Z,990.88
2018-01-23T01:30:52.962Z,990.93
2018-01-23T01:31:53.200Z,990.89
2018-01-23T01:33:46.555Z,990.94
2018-01-23T01:34:46.065Z,990.95
2018-01-23T01:36:39.885Z,990.89
2018-01-23T01:37:39.800Z,990.87
2018-01-23T01:39:34.081Z,990.94
2018-01-23T01:40:33.970Z,990.96
2018-01-23T01:42:28.906Z,990.94
2018-01-23T01:43:29.057Z,990.93
2018-01-23T01:45:21.778Z,991.01
2018-01-23T01:46:21.946Z,991.01
2018-01-23T01:48:17.910Z,991.01
2018-01-23T01:49:17.492Z,991.07
2018-01-23T01:51:10.904Z,991.03
2018-01-23T01:52:10.522Z,991.04
2018-01-23T01:54:04.366Z,991.10
2018-01-23T01:55:03.969Z,991.10
2018-01-23T01:56:56.656Z,991.14
2018-01-23T01:57:56.719Z,991.12
2018-01-23T01:59:49.705Z,991.13
2018-01-23T02:00:49.363Z,991.13
2018-01-23T02:02:43.555Z,991.07
2018-01-23T02:03:43.449Z,991.08
2018-01-23T02:05:37.732Z,991.07
2018-01-23T02:06:37.639Z,991.08
2018-01-23T02:08:32.052Z,991.20
2018-01-23T02:09:31.542Z,991.22
2018-01-23T02:11:25.497Z,991.29
2018-01-23T02:12:24.970Z,991.25
2018-01-23T02:14:18.058Z,991.25
2018-01-23T02:15:17.782Z,991.27
2018-01-23T02:17:11.990Z,991.32
2018-01-23T02:18:11.902Z,991.33
2018-01-23T02:20:06.163Z,991.38
2018-01-23T02:21:06.067Z,991.36
2018-01-23T02:23:00.765Z,991.42
2018-01-23T02:24:00.481Z,991.43
2018-01-23T02:25:53.724Z,991.44
2018-01-23T02:26:53.330Z,991.42
2018-01-23T02:28:47.190Z,991.44
2018-01-23T02:29:47.099Z,991.45
2018-01-23T02:31:40.396Z,991.48
2018-01-23T02:32:40.305Z,991.50
2018-01-23T02:34:33.577Z,991.55
2018-01-23T02:35:33.502Z,991.55
2018-01-23T02:37:28.021Z,991.51
2018-01-23T02:38:27.713Z,991.59
2018-01-23T02:40:21.773Z,991.65
2018-01-23T02:41:21.672Z,991.59
2018-01-23T02:43:15.986Z,991.64
2018-01-23T02:44:15.899Z,991.64
2018-01-23T02:46:10.199Z,991.64
2018-01-23T02:47:09.893Z,991.70
2018-01-23T02:49:04.175Z,991.67
2018-01-23T02:50:04.035Z,991.61
2018-01-23T02:51:58.287Z,991.66
2018-01-23T02:52:58.203Z,991.69
2018-01-23T02:54:52.493Z,991.64
2018-01-23T02:55:52.385Z,991.65
2018-01-23T02:57:46.648Z,991.75
2018-01-23T02:58:46.557Z,991.70
2018-01-23T03:00:40.865Z,991.79
2018-01-23T03:01:40.757Z,991.79
2018-01-23T03:03:35.269Z,991.78
2018-01-23T03:04:34.771Z,991.80
2018-01-23T03:06:29.071Z,991.80
2018-01-23T03:07:28.935Z,991.83
2018-01-23T03:09:22.915Z,991.79
2018-01-23T03:10:22.843Z,991.83
2018-01-23T03:12:15.788Z,991.84
2018-01-23T03:13:15.683Z,991.85
2018-01-23T03:15:08.620Z,991.87
2018-01-23T03:16:09.861Z,991.91
2018-01-23T03:18:01.510Z,991.90
2018-01-23T03:19:01.391Z,991.89
2018-01-23T03:20:54.348Z,991.94
2018-01-23T03:21:54.237Z,991.93
2018-01-23T03:23:47.986Z,992.06
2018-01-23T03:24:47.339Z,992.07
2018-01-23T03:26:41.347Z,992.09
2018-01-23T03:27:41.246Z,992.16
2018-01-23T03:29:35.555Z,992.18
2018-01-23T03:30:35.469Z,992.17
2018-01-23T03:32:30.217Z,992.22
2018-01-23T03:33:29.948Z,992.28
2018-01-23T03:35:24.223Z,992.31
2018-01-23T03:36:24.105Z,992.32
2018-01-23T03:38:18.412Z,992.34
2018-01-23T03:39:18.328Z,992.38
2018-01-23T03:41:12.623Z,992.42
2018-01-23T03:42:12.505Z,992.40
2018-01-23T03:44:06.775Z,992.47
2018-01-23T03:45:06.685Z,992.49
2018-01-23T03:46:59.945Z,992.51
2018-01-23T03:47:59.846Z,992.50
2018-01-23T03:49:53.113Z,992.56
2018-01-23T03:50:53.050Z,992.58
2018-01-23T03:52:47.551Z,992.55
2018-01-23T03:53:47.795Z,992.52
2018-01-23T03:55:40.407Z,992.54
2018-01-23T03:56:40.273Z,992.57
2018-01-23T03:58:34.151Z,992.58
2018-01-23T03:59:33.521Z,992.57
2018-01-23T04:01:27.742Z,992.59
2018-01-23T04:02:27.657Z,992.66
2018-01-23T04:04:21.764Z,992.65
2018-01-23T04:05:21.654Z,992.68
2018-01-23T04:07:14.625Z,992.71
2018-01-23T04:08:14.838Z,992.74
2018-01-23T04:10:07.288Z,992.76
2018-01-23T04:11:07.174Z,992.78
2018-01-23T04:13:00.182Z,992.77
2018-01-23T04:13:59.953Z,992.81
2018-01-23T04:15:53.405Z,992.86
2018-01-23T04:16:53.023Z,992.81
2018-01-23T04:18:45.756Z,992.83
2018-01-23T04:19:45.412Z,992.84
2018-01-23T04:21:40.705Z,992.93
2018-01-23T04:22:40.607Z,992.93
2018-01-23T04:24:34.888Z,993.02
2018-01-23T04:25:34.781Z,992.98
2018-01-23T04:27:29.226Z,993.02
2018-01-23T04:28:29.076Z,993.00
2018-01-23T04:30:22.940Z,993.04
2018-01-23T04:31:22.856Z,993.03
2018-01-23T04:33:17.112Z,993.03
2018-01-23T04:34:17.021Z,993.07
2018-01-23T04:36:11.275Z,993.08
2018-01-23T04:37:11.194Z,993.09
2018-01-23T04:39:04.471Z,993.12
2018-01-23T04:40:04.364Z,993.11
2018-01-23T04:41:58.639Z,993.15
2018-01-23T04:42:58.545Z,993.15
2018-01-23T04:44:52.847Z,993.22
2018-01-23T04:45:52.736Z,993.18
2018-01-23T04:47:45.996Z,993.21
2018-01-23T04:48:45.897Z,993.24
2018-01-23T04:50:39.207Z,993.27
2018-01-23T04:51:39.086Z,993.26
2018-01-23T04:53:33.426Z,993.27
2018-01-23T04:54:33.278Z,993.30
2018-01-23T04:56:26.229Z,993.27
2018-01-23T04:57:26.026Z,993.30
2018-01-23T04:59:18.536Z,993.34
2018-01-23T05:00:18.796Z,993.35
2018-01-23T05:02:12.703Z,993.37
2018-01-23T05:03:12.581Z,993.41
2018-01-23T05:05:07.823Z,993.40
2018-01-23T05:06:07.020Z,993.41
2018-01-23T05:08:00.061Z,993.43
2018-01-23T05:09:00.156Z,993.42
2018-01-23T05:10:52.913Z,993.45
2018-01-23T05:11:52.525Z,993.50
2018-01-23T05:13:46.787Z,993.48
2018-01-23T05:14:46.669Z,993.49
2018-01-23T05:16:39.932Z,993.53
2018-01-23T05:17:39.829Z,993.52
2018-01-23T05:19:33.129Z,993.55
2018-01-23T05:20:33.017Z,993.56
2018-01-23T05:22:27.624Z,993.55
2018-01-23T05:23:27.128Z,993.56
2018-01-23T05:25:19.966Z,993.58
2018-01-23T05:26:19.849Z,993.61
2018-01-23T05:28:14.086Z,993.66
2018-01-23T05:29:13.994Z,993.66
2018-01-23T05:31:08.296Z,993.64
2018-01-23T05:32:08.196Z,993.70
2018-01-23T05:34:02.461Z,993.72
2018-01-23T05:35:02.380Z,993.72
2018-01-23T05:36:56.626Z,993.71
2018-01-23T05:37:56.504Z,993.73
2018-01-23T05:39:50.781Z,993.73
2018-01-23T05:40:50.693Z,993.73
2018-01-23T05:42:44.007Z,993.72
2018-01-23T05:43:43.901Z,993.72
2018-01-23T05:45:37.134Z,993.70
2018-01-23T05:46:37.049Z,993.74
2018-01-23T05:48:30.361Z,993.76
2018-01-23T05:49:30.238Z,993.84
2018-01-23T05:51:24.225Z,993.86
2018-01-23T05:52:24.289Z,993.86
2018-01-23T05:54:18.407Z,993.89
2018-01-23T05:55:18.280Z,993.90
2018-01-23T05:57:11.515Z,993.98
2018-01-23T05:58:11.416Z,993.97
2018-01-23T06:00:05.564Z,994.03
2018-01-23T06:01:05.453Z,994.01
2018-01-23T06:02:59.690Z,994.06
2018-01-23T06:03:59.596Z,994.07
2018-01-23T06:05:52.849Z,994.13
2018-01-23T06:06:52.748Z,994.13
2018-01-23T06:08:46.645Z,994.19
2018-01-23T06:09:46.953Z,994.19
2018-01-23T06:11:40.844Z,994.24
2018-01-23T06:12:40.720Z,994.22
2018-01-23T06:14:33.987Z,994.20
2018-01-23T06:15:33.890Z,994.26
2018-01-23T06:17:28.483Z,994.30
2018-01-23T06:18:28.221Z,994.29
2018-01-23T06:20:22.230Z,994.29
2018-01-23T06:21:22.142Z,994.32
2018-01-23T06:23:15.435Z,994.34
2018-01-23T06:24:15.338Z,994.36
2018-01-23T06:26:09.594Z,994.37
2018-01-23T06:27:09.909Z,994.41
2018-01-23T06:29:02.398Z,994.40
2018-01-23T06:30:02.541Z,994.43
2018-01-23T06:31:56.597Z,994.44
2018-01-23T06:32:56.400Z,994.45
2018-01-23T06:34:49.712Z,994.49
2018-01-23T06:35:49.591Z,994.50
2018-01-23T06:37:42.857Z,994.55
2018-01-23T06:38:42.789Z,994.53
2018-01-23T06:40:36.038Z,994.60
2018-01-23T06:41:35.941Z,994.64
2018-01-23T06:43:29.220Z,994.68
2018-01-23T06:44:29.122Z,994.72
2018-01-23T06:46:22.408Z,994.70
2018-01-23T06:47:22.310Z,994.75
2018-01-23T06:49:16.396Z,994.71
2018-01-23T06:50:16.311Z,994.72
2018-01-23T06:52:10.560Z,994.78
2018-01-23T06:53:10.458Z,994.80
2018-01-23T06:55:03.738Z,994.82
2018-01-23T06:56:03.680Z,994.83
2018-01-23T06:57:56.945Z,994.86
2018-01-23T06:58:56.821Z,994.87
2018-01-23T07:00:51.065Z,994.93
2018-01-23T07:01:50.981Z,994.91
2018-01-23T07:03:44.272Z,994.96
2018-01-23T07:04:44.155Z,995.01
2018-01-23T07:06:37.392Z,995.07
2018-01-23T07:07:37.296Z,995.07
2018-01-23T07:09:30.588Z,995.07
2018-01-23T07:10:30.468Z,995.07
2018-01-23T07:12:25.220Z,995.10
2018-01-23T07:13:24.451Z,995.13
2018-01-23T07:15:17.311Z,995.20
2018-01-23T07:16:17.603Z,995.24
2018-01-23T07:18:11.472Z,995.21
2018-01-23T07:19:11.372Z,995.24
2018-01-23T07:21:06.233Z,995.28
2018-01-23T07:22:05.543Z,995.29
2018-01-23T07:23:58.193Z,995.27
2018-01-23T07:24:58.500Z,995.27
2018-01-23T07:26:52.360Z,995.30
2018-01-23T07:27:52.253Z,995.28
2018-01-23T07:29:45.526Z,995.29
2018-01-23T07:30:45.430Z,995.37
2018-01-23T07:32:38.708Z,995.33
2018-01-23T07:33:38.603Z,995.34
2018-01-23T07:35:31.878Z,995.37
2018-01-23T07:36:31.766Z,995.42
2018-01-23T07:38:26.037Z,995.42
2018-01-23T07:39:25.941Z,995.41
2018-01-23T07:41:19.195Z,995.46
2018-01-23T07:42:19.092Z,995.45
2018-01-23T07:44:13.531Z,995.49
2018-01-23T07:45:13.197Z,995.49
2018-01-23T07:47:07.239Z,995.55
2018-01-23T07:48:07.152Z,995.54
2018-01-23T07:50:00.456Z,995.54
2018-01-23T07:51:00.347Z,995.50
2018-01-23T07:52:54.498Z,995.53
2018-01-23T07:53:54.498Z,995.59
2018-01-23T07:55:48.668Z,995.62
2018-01-23T07:56:48.551Z,995.58
2018-01-23T07:58:41.829Z,995.62
2018-01-23T07:59:41.734Z,995.61
2018-01-23T08:01:36.668Z,995.62
2018-01-23T08:02:35.980Z,995.64
2018-01-23T08:04:28.956Z,995.63
2018-01-23T08:05:28.770Z,995.65
2018-01-23T08:07:22.744Z,995.71
2018-01-23T08:08:22.642Z,995.75
2018-01-23T08:10:15.906Z,995.76
2018-01-23T08:11:15.817Z,995.78
2018-01-23T08:13:10.096Z,995.79
2018-01-23T08:14:10.076Z,995.68
2018-01-23T08:16:03.953Z,995.76
2018-01-23T08:17:03.850Z,995.72
2018-01-23T08:18:57.528Z,995.74
2018-01-23T08:19:57.013Z,995.73
2018-01-23T08:21:51.275Z,995.74
2018-01-23T08:22:51.187Z,995.78
2018-01-23T08:24:45.209Z,995.80
2018-01-23T08:25:45.127Z,995.84
2018-01-23T08:27:39.339Z,995.83
2018-01-23T08:28:39.249Z,995.84
2018-01-23T08:30:32.540Z,995.86
2018-01-23T08:31:32.430Z,995.84
2018-01-23T08:33:25.705Z,995.87
2018-01-23T08:34:25.615Z,995.90
2018-01-23T08:36:20.456Z,995.87
2018-01-23T08:37:20.082Z,995.91
2018-01-23T08:39:12.918Z,995.89
2018-01-23T08:40:12.587Z,995.93
2018-01-23T08:42:05.612Z,995.92
2018-01-23T08:43:05.785Z,995.88
2018-01-23T08:44:58.425Z,995.90
2018-01-23T08:45:58.278Z,995.92
2018-01-23T08:47:52.412Z,995.95
2018-01-23T08:48:52.299Z,995.90
2018-01-23T08:50:45.584Z,995.92
2018-01-23T08:51:45.508Z,995.96
2018-01-23T08:53:40.463Z,995.95
2018-01-23T08:54:39.742Z,996.01
2018-01-23T08:56:32.805Z,996.00
2018-01-23T08:57:32.627Z,995.98
2018-01-23T08:59:26.559Z,995.99
2018-01-23T09:00:26.450Z,996.02
2018-01-23T09:02:20.581Z,996.02
2018-01-23T09:03:20.625Z,996.03
2018-01-23T09:05:14.704Z,996.02
2018-01-23T09:06:14.606Z,996.03
2018-01-23T09:08:09.010Z,996.00
2018-01-23T09:09:08.535Z,996.05
2018-01-23T09:11:02.161Z,996.05
2018-01-23T09:12:01.786Z,996.05
2018-01-23T09:13:56.038Z,996.08
2018-01-23T09:14:55.938Z,996.13
2018-01-23T09:17:19.960Z,996.18
2018-01-23T09:18:19.855Z,996.18
2018-01-23T09:20:14.233Z,996.23
2018-01-23T09:21:14.134Z,996.22
2018-01-23T09:23:08.455Z,996.26
2018-01-23T09:24:08.346Z,996.29
2018-01-23T09:26:01.605Z,996.29
2018-01-23T09:27:01.527Z,996.25
2018-01-23T09:28:55.788Z,996.28
2018-01-23T09:29:55.702Z,996.26
2018-01-23T09:31:49.959Z,996.24
2018-01-23T09:32:49.870Z,996.23
2018-01-23T09:34:44.834Z,996.29
2018-01-23T09:35:44.767Z,996.34
2018-01-23T09:37:38.796Z,996.35
2018-01-23T09:38:38.710Z,996.34
2018-01-23T09:40:31.988Z,996.37
2018-01-23T09:41:31.874Z,996.39
2018-01-23T09:43:26.742Z,996.45
2018-01-23T09:44:26.006Z,996.48
2018-01-23T09:46:18.712Z,996.50
2018-01-23T09:47:18.721Z,996.52
2018-01-23T09:49:11.449Z,996.53
2018-01-23T09:50:11.754Z,996.57
2018-01-23T09:52:05.624Z,996.60
2018-01-23T09:53:05.503Z,996.59
2018-01-23T09:54:59.761Z,996.62
2018-01-23T09:55:59.677Z,996.63
2018-01-23T09:57:52.968Z,996.67
2018-01-23T09:58:52.853Z,996.68
2018-01-23T10:00:47.105Z,996.70
2018-01-23T10:01:47.017Z,996.68
2018-01-23T10:03:40.294Z,996.70
2018-01-23T10:04:40.175Z,996.70
2018-01-23T10:06:33.407Z,996.68
2018-01-23T10:07:33.338Z,996.66
2018-01-23T10:09:26.601Z,996.67
2018-01-23T10:10:26.490Z,996.69
2018-01-23T10:12:20.743Z,996.66
2018-01-23T10:13:20.649Z,996.64
2018-01-23T10:15:13.928Z,996.69
2018-01-23T10:16:13.814Z,996.68
2018-01-23T10:18:07.083Z,996.69
2018-01-23T10:19:06.980Z,996.71
2018-01-23T10:21:01.035Z,996.72
2018-01-23T10:22:00.922Z,996.71
2018-01-23T10:23:53.768Z,996.74
2018-01-23T10:24:53.676Z,996.71
2018-01-23T10:26:47.941Z,996.71
2018-01-23T10:27:47.830Z,996.67
2018-01-23T10:29:41.082Z,996.65
2018-01-23T10:30:41.006Z,996.66
2018-01-23T10:32:35.040Z,996.66
2018-01-23T10:33:34.897Z,996.61
2018-01-23T10:35:27.745Z,996.69
2018-01-23T10:36:27.642Z,996.71
2018-01-23T10:38:22.899Z,996.60
2018-01-23T10:39:22.804Z,996.69
2018-01-23T10:41:16.091Z,996.74
2018-01-23T10:42:15.990Z,996.77
2018-01-23T10:44:09.291Z,996.72
2018-01-23T10:45:09.158Z,996.67
2018-01-23T10:47:02.380Z,996.68
2018-01-23T10:48:02.296Z,996.66
2018-01-23T10:49:55.605Z,996.66
2018-01-23T10:50:55.481Z,996.64
2018-01-23T10:52:49.569Z,996.62
2018-01-23T10:53:49.864Z,996.62
2018-01-23T10:55:43.702Z,996.68
2018-01-23T10:56:43.603Z,996.66
2018-01-23T10:58:37.859Z,996.74
2018-01-23T10:59:37.520Z,996.74
2018-01-23T11:01:31.787Z,996.77
2018-01-23T11:02:31.700Z,996.75
2018-01-23T11:04:24.925Z,996.75
2018-01-23T11:05:24.843Z,996.79
2018-01-23T11:07:18.144Z,996.83
2018-01-23T11:08:17.995Z,996.84
2018-01-23T11:10:12.092Z,996.79
2018-01-23T11:11:12.159Z,996.78
2018-01-23T11:13:06.247Z,996.78
2018-01-23T11:14:06.169Z,996.76
2018-01-23T11:16:00.152Z,996.82
2018-01-23T11:17:00.456Z,996.77
2018-01-23T11:18:53.586Z,996.72
2018-01-23T11:19:53.155Z,996.76
2018-01-23T11:21:47.067Z,996.76
2018-01-23T11:22:46.952Z,996.77
2018-01-23T11:24:40.222Z,996.75
2018-01-23T11:25:40.122Z,996.70
2018-01-23T11:27:34.375Z,996.65
2018-01-23T11:28:34.291Z,996.61
2018-01-23T11:30:27.617Z,996.67
2018-01-23T11:31:27.508Z,996.71
2018-01-23T11:33:22.087Z,996.68
2018-01-23T11:34:22.405Z,996.70
2018-01-23T11:36:15.252Z,996.65
2018-01-23T11:37:14.791Z,996.64
2018-01-23T11:39:09.003Z,996.68
2018-01-23T11:40:08.908Z,996.65
2018-01-23T11:42:04.662Z,996.64
2018-01-23T11:43:02.804Z,996.64
2018-01-23T11:44:56.120Z,996.62
2018-01-23T11:45:56.045Z,996.63
2018-01-23T11:47:49.913Z,996.61
2018-01-23T11:48:49.799Z,996.61
2018-01-23T11:50:44.412Z,996.64
2018-01-23T11:51:43.922Z,996.60
2018-01-23T11:53:36.954Z,996.63
2018-01-23T11:54:36.801Z,996.64
2018-01-23T11:56:31.502Z,996.65
2018-01-23T11:57:30.835Z,996.59
2018-01-23T11:59:24.729Z,996.56
2018-01-23T12:00:24.616Z,996.57
2018-01-23T12:02:18.857Z,996.52
2018-01-23T12:03:18.770Z,996.53
2018-01-23T12:05:12.087Z,996.51
2018-01-23T12:06:11.975Z,996.53
2018-01-23T12:08:05.245Z,996.51
2018-01-23T12:09:05.159Z,996.50
2018-01-23T12:10:59.639Z,996.45
2018-01-23T12:11:59.773Z,996.49
2018-01-23T12:13:53.639Z,996.47
2018-01-23T12:14:53.547Z,996.42
2018-01-23T12:16:48.586Z,996.43
2018-01-23T12:17:48.318Z,996.44
2018-01-23T12:19:42.427Z,996.37
2018-01-23T12:20:42.341Z,996.32
2018-01-23T12:22:36.776Z,996.31
2018-01-23T12:23:36.884Z,996.24
2018-01-23T12:25:30.729Z,996.27
2018-01-23T12:26:30.621Z,996.26
2018-01-23T12:28:23.913Z,996.27
2018-01-23T12:29:23.801Z,996.26
2018-01-23T12:31:17.074Z,996.33
2018-01-23T12:32:16.990Z,996.30
2018-01-23T12:34:11.258Z,996.33
2018-01-23T12:35:11.167Z,996.30
2018-01-23T12:37:04.396Z,996.30
2018-01-23T12:38:04.306Z,996.26
2018-01-23T12:39:57.608Z,996.30
2018-01-23T12:40:57.502Z,996.29
2018-01-23T12:42:51.849Z,996.19
2018-01-23T12:43:51.924Z,996.22
2018-01-23T12:45:45.821Z,996.16
2018-01-23T12:46:45.714Z,996.12
2018-01-23T12:48:39.951Z,996.14
2018-01-23T12:49:39.868Z,996.14
2018-01-23T12:51:34.158Z,996.12
2018-01-23T12:52:34.055Z,996.11
2018-01-23T12:54:28.555Z,996.17
2018-01-23T12:55:28.053Z,996.22
2018-01-23T12:57:22.307Z,996.19
2018-01-23T12:58:22.204Z,996.17
2018-01-23T13:00:15.435Z,996.17
2018-01-23T13:01:15.369Z,996.15
2018-01-23T13:03:14.114Z,996.16
2018-01-23T13:04:13.376Z,996.25
2018-01-23T13:06:07.616Z,996.19
2018-01-23T13:07:07.528Z,996.21
2018-01-23T13:09:22.423Z,996.28
2018-01-23T13:10:22.317Z,996.26
2018-01-23T13:12:16.563Z,996.21
2018-01-23T13:13:16.474Z,996.24
2018-01-23T13:15:09.774Z,996.23
2018-01-23T13:16:09.652Z,996.20
2018-01-23T13:18:02.933Z,996.20
2018-01-23T13:19:02.852Z,996.24
2018-01-23T13:20:56.129Z,996.21
2018-01-23T13:21:56.022Z,996.20
2018-01-23T13:23:50.146Z,996.23
2018-01-23T13:24:50.052Z,996.21
2018-01-23T13:26:43.315Z,996.25
2018-01-23T13:27:42.817Z,996.23
2018-01-23T13:29:35.653Z,996.17
2018-01-23T13:30:35.576Z,996.21
2018-01-23T13:32:28.446Z,996.27
2018-01-23T13:33:28.518Z,996.22
2018-01-23T13:35:22.540Z,996.24
2018-01-23T13:36:22.445Z,996.18
2018-01-23T13:38:15.761Z,996.17
2018-01-23T13:39:15.653Z,996.25
2018-01-23T13:41:10.480Z,996.20
2018-01-23T13:42:10.128Z,996.15
2018-01-23T13:44:04.195Z,996.14
2018-01-23T13:45:04.075Z,996.09
2018-01-23T13:46:58.522Z,996.08
2018-01-23T13:47:58.389Z,996.05
2018-01-23T13:49:51.254Z,996.03
2018-01-23T13:50:51.142Z,996.09
2018-01-23T13:52:45.001Z,996.02
2018-01-23T13:53:44.936Z,996.00
2018-01-23T13:55:38.235Z,995.99
2018-01-23T13:56:38.109Z,995.91
2018-01-23T13:58:31.372Z,995.86
2018-01-23T13:59:31.293Z,995.90
2018-01-23T14:01:24.602Z,995.79
2018-01-23T14:02:24.475Z,995.73
2018-01-23T14:04:17.749Z,995.83
2018-01-23T14:05:17.650Z,995.82
2018-01-23T14:07:10.912Z,995.81
2018-01-23T14:08:10.806Z,995.79
2018-01-23T14:10:04.057Z,995.78
2018-01-23T14:11:03.978Z,995.76
2018-01-23T14:12:57.501Z,995.80
2018-01-23T14:13:57.140Z,995.88
2018-01-23T14:15:50.469Z,995.87
2018-01-23T14:16:50.373Z,995.84
2018-01-23T14:18:43.615Z,995.87
2018-01-23T14:19:43.508Z,995.90
2018-01-23T14:21:37.773Z,995.88
2018-01-23T14:22:37.740Z,995.88
2018-01-23T14:24:30.991Z,995.91
2018-01-23T14:25:30.859Z,995.94
2018-01-23T14:27:25.298Z,995.91
2018-01-23T14:28:25.101Z,995.88
2018-01-23T14:30:18.381Z,995.88
2018-01-23T14:31:17.961Z,995.85
2018-01-23T14:33:10.822Z,995.84
2018-01-23T14:34:10.378Z,995.91
2018-01-23T14:36:04.041Z,995.87
2018-01-23T14:37:03.523Z,995.83
2018-01-23T14:38:55.998Z,995.81
2018-01-23T14:39:56.155Z,995.81
2018-01-23T14:41:50.157Z,995.88
2018-01-23T14:42:50.056Z,995.88
2018-01-23T14:44:44.052Z,995.90
2018-01-23T14:45:43.941Z,995.86
2018-01-23T14:47:36.809Z,995.85
2018-01-23T14:48:36.825Z,995.77
2018-01-23T14:50:29.968Z,995.72
2018-01-23T14:51:29.568Z,995.70
2018-01-23T14:53:23.681Z,995.58
2018-01-23T14:54:23.583Z,995.66
2018-01-23T14:56:16.850Z,995.62
2018-01-23T14:57:16.763Z,995.63
2018-01-23T14:59:10.160Z,995.57
2018-01-23T15:00:09.929Z,995.63
2018-01-23T15:02:03.927Z,995.58
2018-01-23T15:03:04.051Z,995.64
2018-01-23T15:04:56.701Z,995.69
2018-01-23T15:05:56.892Z,995.66
2018-01-23T15:07:50.795Z,995.67
2018-01-23T15:08:50.709Z,995.63
2018-01-23T15:10:45.855Z,995.59
2018-01-23T15:11:45.922Z,995.68
2018-01-23T15:13:39.803Z,995.61
2018-01-23T15:14:39.699Z,995.61
2018-01-23T15:16:33.719Z,995.57
2018-01-23T15:17:34.006Z,995.60
2018-01-23T15:19:26.879Z,995.58
2018-01-23T15:20:26.477Z,995.58
2018-01-23T15:22:19.858Z,995.64
2018-01-23T15:23:19.598Z,995.60
2018-01-23T15:25:13.458Z,995.63
2018-01-23T15:26:13.354Z,995.56
2018-01-23T15:28:07.666Z,995.50
2018-01-23T15:29:07.538Z,995.54
2018-01-23T15:31:02.191Z,995.46
2018-01-23T15:32:01.798Z,995.50
2018-01-23T15:33:54.608Z,995.45
2018-01-23T15:34:54.520Z,995.43
2018-01-23T15:36:47.348Z,995.41
2018-01-23T15:37:47.256Z,995.43
2018-01-23T15:39:41.525Z,995.45
2018-01-23T15:40:41.394Z,995.46
2018-01-23T15:42:35.412Z,995.38
2018-01-23T15:43:35.342Z,995.43
2018-01-23T15:45:29.573Z,995.38
2018-01-23T15:46:29.471Z,995.35
2018-01-23T15:48:22.748Z,995.30
2018-01-23T15:49:22.658Z,995.23
2018-01-23T15:51:15.926Z,995.25
2018-01-23T15:52:15.813Z,995.28
2018-01-23T15:54:09.890Z,995.32
2018-01-23T15:55:09.794Z,995.27
2018-01-23T15:57:04.032Z,995.23
2018-01-23T15:58:03.932Z,995.24
2018-01-23T15:59:58.188Z,995.30
2018-01-23T16:00:58.102Z,995.26
2018-01-23T16:02:51.404Z,995.22
2018-01-23T16:03:51.261Z,995.28
2018-01-23T16:05:45.401Z,995.19
2018-01-23T16:06:45.315Z,995.22
2018-01-23T16:08:38.276Z,995.30
2018-01-23T16:09:38.503Z,995.15
2018-01-23T16:11:31.176Z,995.08
2018-01-23T16:12:31.018Z,995.10
2018-01-23T16:14:25.275Z,995.11
2018-01-23T16:15:25.155Z,995.10
2018-01-23T16:17:27.016Z,995.06
2018-01-23T16:18:26.552Z,995.08
2018-01-23T16:20:20.814Z,995.15
2018-01-23T16:21:20.691Z,995.07
2018-01-23T16:23:14.981Z,995.05
2018-01-23T16:24:14.898Z,995.08
2018-01-23T16:26:09.006Z,995.05
2018-01-23T16:27:08.893Z,995.05
2018-01-23T16:29:06.753Z,995.02
2018-01-23T16:30:06.951Z,995.10
2018-01-23T16:32:07.138Z,995.07
2018-01-23T16:33:06.969Z,994.99
2018-01-23T16:35:00.343Z,994.96
2018-01-23T16:36:00.289Z,994.94
2018-01-23T16:37:56.711Z,994.87
2018-01-23T16:38:56.057Z,994.90
2018-01-23T16:40:50.289Z,995.00
2018-01-23T16:41:50.203Z,994.92
2018-01-23T16:43:44.473Z,994.98
2018-01-23T16:44:44.363Z,994.94
2018-01-23T16:46:39.208Z,994.86
2018-01-23T16:47:39.081Z,994.81
2018-01-23T16:49:33.764Z,994.84
2018-01-23T16:50:33.420Z,994.84
2018-01-23T16:52:27.360Z,994.84
2018-01-23T16:53:27.273Z,994.86
2018-01-23T16:55:20.564Z,994.86
2018-01-23T16:56:20.478Z,994.87
2018-01-23T16:58:14.912Z,994.86
2018-01-23T16:59:14.751Z,994.87
2018-01-23T17:01:07.541Z,994.77
2018-01-23T17:02:07.266Z,994.67
2018-01-23T17:04:00.514Z,994.63
2018-01-23T17:05:00.366Z,994.74
2018-01-23T17:06:54.394Z,994.75
2018-01-23T17:07:54.266Z,994.65
2018-01-23T17:09:49.410Z,994.68
2018-01-23T17:10:48.203Z,994.69
2018-01-23T17:12:41.469Z,994.74
2018-01-23T17:13:41.053Z,994.67
2018-01-23T17:15:35.275Z,994.64
2018-01-23T17:16:35.187Z,994.61
2018-01-23T17:18:29.726Z,994.75
2018-01-23T17:19:29.583Z,994.63
2018-01-23T17:21:23.429Z,994.49
2018-01-23T17:22:23.331Z,994.52
2018-01-23T17:24:16.593Z,994.52
2018-01-23T17:25:16.515Z,994.51
2018-01-23T17:27:09.739Z,994.56
2018-01-23T17:28:09.667Z,994.48
2018-01-23T17:30:02.956Z,994.46
2018-01-23T17:31:02.820Z,994.51
2018-01-23T17:32:56.116Z,994.40
2018-01-23T17:33:56.029Z,994.40
2018-01-23T17:35:49.320Z,994.39
2018-01-23T17:36:49.199Z,994.38
2018-01-23T17:38:43.269Z,994.31
2018-01-23T17:39:43.173Z,994.27
2018-01-23T17:41:37.419Z,994.20
2018-01-23T17:42:37.309Z,994.15
2018-01-23T17:44:32.122Z,994.09
2018-01-23T17:45:32.098Z,994.08
2018-01-23T17:47:26.294Z,993.81
2018-01-23T17:48:26.181Z,993.83
2018-01-23T17:50:19.436Z,993.62
2018-01-23T17:51:19.344Z,993.64
2018-01-23T17:53:13.866Z,993.55
2018-01-23T17:54:13.365Z,993.50
2018-01-23T17:56:06.301Z,993.60
2018-01-23T17:57:06.431Z,993.41
2018-01-23T17:59:00.453Z,993.40
2018-01-23T18:00:00.371Z,993.36
2018-01-23T18:01:54.346Z,993.33
2018-01-23T18:02:54.276Z,993.35
2018-01-23T18:04:47.471Z,993.25